Time;durP1;ratioP1;P1;durP2;ratioP2;P2;SDS_P1;SDS_P2;PMS_P1;PMS_P2;Temp;Humidity;BMP_temperature;BMP_pressure;BME280_temperature;BME280_humidity;BME280_pressure;Samples;Min_cycle;Max_cycle;Signal;HPM_P1;HPM_P2
2024/03/01 00:00:27;;;;;;;6.63;3.37;;;11.60;99.90;;;;;;7280786;19;20659;-78
2024/03/01 00:02:53;;;;;;;5.47;3.40;;;11.70;99.90;;;;;;7278789;19;20193;-77
2024/03/01 00:05:19;;;;;;;8.20;3.63;;;11.70;99.90;;;;;;7280348;19;20202;-76
2024/03/01 00:07:45;;;;;;;6.37;3.33;;;11.60;99.90;;;;;;7277349;19;20672;-76
2024/03/01 00:10:11;;;;;;;4.80;2.83;;;11.50;99.90;;;;;;7302474;19;20187;-77
2024/03/01 00:12:37;;;;;;;5.90;3.23;;;11.50;99.90;;;;;;7283431;19;20178;-78
2024/03/01 00:15:03;;;;;;;5.37;2.97;;;11.60;99.90;;;;;;7281445;19;20261;-78
2024/03/01 00:17:29;;;;;;;5.47;2.97;;;11.50;99.90;;;;;;7277671;19;20213;-77
2024/03/01 00:19:55;;;;;;;6.97;3.47;;;11.50;99.90;;;;;;7280276;19;20193;-77
2024/03/01 00:22:21;;;;;;;7.23;3.17;;;11.50;99.90;;;;;;7280610;19;20211;-78
2024/03/01 00:24:46;;;;;;;6.97;3.13;;;11.50;99.90;;;;;;7279840;19;20538;-77
2024/03/01 00:27:12;;;;;;;9.27;2.97;;;11.50;99.90;;;;;;7300225;19;20191;-77
2024/03/01 00:29:43;;;;;;;6.37;3.17;;;11.60;99.90;;;;;;7274139;19;20260;-78
2024/03/01 00:32:09;;;;;;;6.00;3.23;;;11.60;99.90;;;;;;7298817;19;20189;-77
2024/03/01 00:34:35;;;;;;;5.37;3.10;;;11.50;99.90;;;;;;7279691;19;20850;-77
2024/03/01 00:37:00;;;;;;;6.33;3.33;;;11.50;99.90;;;;;;7278270;19;20192;-77
2024/03/01 00:39:26;;;;;;;5.83;3.40;;;11.40;99.90;;;;;;7280739;19;20306;-77
2024/03/01 00:41:53;;;;;;;4.93;3.10;;;11.40;99.90;;;;;;7280427;19;20192;-78
2024/03/01 00:44:19;;;;;;;5.37;2.80;;;11.50;99.90;;;;;;7280384;19;20211;-77
2024/03/01 00:46:46;;;;;;;6.13;3.40;;;11.50;99.90;;;;;;7279462;19;20224;-77
2024/03/01 00:49:13;;;;;;;5.93;3.23;;;11.50;99.90;;;;;;7302187;19;21121;-77
2024/03/01 00:51:38;;;;;;;5.80;3.40;;;11.50;99.90;;;;;;7279377;19;20207;-77
2024/03/01 00:54:04;;;;;;;6.73;3.40;;;11.60;99.90;;;;;;7280098;19;20758;-77
2024/03/01 00:56:30;;;;;;;7.67;3.63;;;11.60;99.90;;;;;;7278230;19;20678;-77
2024/03/01 00:58:56;;;;;;;4.80;2.90;;;11.60;99.90;;;;;;7279649;19;20192;-77
2024/03/01 01:01:22;;;;;;;6.23;3.43;;;11.70;99.90;;;;;;7278071;19;20188;-77
2024/03/01 01:03:48;;;;;;;7.97;3.47;;;11.70;99.90;;;;;;7279120;19;20683;-77
2024/03/01 01:06:13;;;;;;;7.10;3.50;;;11.60;99.90;;;;;;7286619;19;20180;-77
2024/03/01 01:08:39;;;;;;;5.10;3.33;;;11.60;99.90;;;;;;7296298;19;20192;-77
2024/03/01 01:11:05;;;;;;;6.77;3.60;;;11.60;99.90;;;;;;7277733;19;20185;-77
2024/03/01 01:13:30;;;;;;;6.13;3.30;;;11.70;99.90;;;;;;7277739;19;20211;-78
2024/03/01 01:15:56;;;;;;;7.63;3.47;;;11.80;99.90;;;;;;7278186;19;20252;-78
2024/03/01 01:18:22;;;;;;;6.57;3.60;;;11.70;99.90;;;;;;7279463;19;20213;-78
2024/03/01 01:20:48;;;;;;;6.07;3.50;;;11.80;99.90;;;;;;7282420;19;20185;-77
2024/03/01 01:23:14;;;;;;;5.47;3.30;;;11.80;99.90;;;;;;7287888;19;20192;-77
2024/03/01 01:25:42;;;;;;;3.47;1.60;;;11.90;99.90;;;;;;7305704;19;20189;-77
2024/03/01 01:28:07;;;;;;;2.53;1.60;;;11.60;99.90;;;;;;7284206;19;20287;-77
2024/03/01 01:30:33;;;;;;;2.73;1.67;;;10.90;99.90;;;;;;7279189;19;20282;-78
2024/03/01 01:32:59;;;;;;;4.23;1.50;;;10.50;99.90;;;;;;7286100;19;20200;-77
2024/03/01 01:35:25;;;;;;;5.30;2.00;;;10.00;99.90;;;;;;7286366;19;20185;-77
2024/03/01 01:37:50;;;;;;;3.77;2.40;;;9.70;99.90;;;;;;7285285;19;20193;-77
2024/03/01 01:40:16;;;;;;;3.83;2.10;;;9.60;99.90;;;;;;7285757;19;20655;-77
2024/03/01 01:42:42;;;;;;;3.90;1.90;;;9.50;99.90;;;;;;7307429;19;20307;-77
2024/03/01 01:45:09;;;;;;;4.57;1.60;;;9.30;99.90;;;;;;7286204;19;20290;-77
2024/03/01 01:47:34;;;;;;;2.63;1.60;;;9.20;99.90;;;;;;7284360;19;20226;-77
2024/03/01 01:50:01;;;;;;;4.07;1.80;;;9.00;99.90;;;;;;7285423;19;20810;-77
2024/03/01 01:52:27;;;;;;;2.90;1.70;;;8.90;99.90;;;;;;7285274;19;20218;-77
2024/03/01 01:54:54;;;;;;;4.97;1.83;;;8.80;99.90;;;;;;7285256;19;20588;-77
2024/03/01 01:57:21;;;;;;;3.17;1.80;;;8.80;99.90;;;;;;7285988;19;20185;-77
2024/03/01 01:59:48;;;;;;;3.40;1.80;;;8.90;99.90;;;;;;7286105;19;20193;-77
2024/03/01 02:02:19;;;;;;;7.27;2.50;;;9.00;99.90;;;;;;7285502;19;20294;-77
2024/03/01 02:04:45;;;;;;;5.23;2.03;;;9.10;99.90;;;;;;7284021;19;20193;-76
2024/03/01 02:07:11;;;;;;;5.00;2.40;;;9.10;99.90;;;;;;7309561;19;20193;-77
2024/03/01 02:09:39;;;;;;;3.83;2.10;;;9.10;99.90;;;;;;7288536;19;20185;-77
2024/03/01 02:12:06;;;;;;;6.13;2.07;;;9.10;99.90;;;;;;7284288;19;20186;-78
2024/03/01 02:14:32;;;;;;;5.00;2.37;;;9.00;99.90;;;;;;7284050;19;20699;-78
2024/03/01 02:16:58;;;;;;;6.03;2.60;;;9.00;99.90;;;;;;7285823;19;20204;-77
2024/03/01 02:19:24;;;;;;;6.80;2.20;;;8.70;99.90;;;;;;7284590;19;20190;-77
2024/03/01 02:22:09;;;;;;;6.07;2.30;;;8.60;99.90;;;;;;7291180;19;20193;-76
2024/03/01 02:24:35;;;;;;;3.73;2.27;;;8.70;99.90;;;;;;7287188;19;20216;-76
2024/03/01 02:27:01;;;;;;;6.57;2.60;;;8.60;99.90;;;;;;7289767;19;20284;-77
2024/03/01 02:29:27;;;;;;;5.57;2.60;;;8.70;99.90;;;;;;7284020;19;20319;-76
2024/03/01 02:31:53;;;;;;;5.07;2.70;;;8.70;99.90;;;;;;7283075;19;20190;-76
2024/03/01 02:34:19;;;;;;;5.17;2.80;;;8.80;99.90;;;;;;7282712;19;20693;-77
2024/03/01 02:36:45;;;;;;;7.70;2.80;;;8.80;99.90;;;;;;7283385;19;20189;-76
2024/03/01 02:39:16;;;;;;;5.90;2.90;;;8.80;99.90;;;;;;7305039;19;20260;-75
2024/03/01 02:41:45;;;;;;;6.27;3.20;;;8.70;99.90;;;;;;7285925;19;20301;-76
2024/03/01 02:44:12;;;;;;;6.43;3.10;;;8.70;99.90;;;;;;7298191;19;20201;-76
2024/03/01 02:46:40;;;;;;;7.43;3.60;;;8.70;99.90;;;;;;7287755;19;20204;-77
2024/03/01 02:49:06;;;;;;;8.57;4.00;;;8.80;99.90;;;;;;7286528;19;20185;-76
2024/03/01 02:51:32;;;;;;;8.23;3.50;;;8.80;99.90;;;;;;7288564;19;20604;-76
2024/03/01 02:53:58;;;;;;;7.00;3.23;;;8.80;99.90;;;;;;7298652;19;20197;-76
2024/03/01 02:56:25;;;;;;;7.93;3.53;;;8.80;99.90;;;;;;7296583;19;20194;-76
2024/03/01 02:58:52;;;;;;;8.70;3.77;;;8.70;99.90;;;;;;7291914;19;20188;-76
2024/03/01 03:01:21;;;;;;;10.13;4.10;;;8.60;99.90;;;;;;7287872;19;20192;-76
2024/03/01 03:03:47;;;;;;;9.33;4.67;;;8.70;99.90;;;;;;7289996;19;20683;-76
2024/03/01 03:06:15;;;;;;;11.60;4.97;;;8.60;99.90;;;;;;7305496;19;20211;-76
2024/03/01 03:08:40;;;;;;;10.60;5.17;;;8.70;99.90;;;;;;7283639;19;20240;-77
2024/03/01 03:11:08;;;;;;;12.27;5.77;;;8.70;99.90;;;;;;7282367;19;20320;-77
2024/03/01 03:13:34;;;;;;;13.20;6.93;;;8.70;99.90;;;;;;7288760;19;20190;-76
2024/03/01 03:16:01;;;;;;;13.73;6.83;;;8.60;99.90;;;;;;7296112;19;20206;-77
2024/03/01 03:18:27;;;;;;;14.33;8.10;;;8.50;99.90;;;;;;7302425;19;20620;-76
2024/03/01 03:20:53;;;;;;;15.83;9.07;;;8.50;99.90;;;;;;7296871;19;20185;-76
2024/03/01 03:23:19;;;;;;;14.70;9.13;;;8.50;99.90;;;;;;7288880;19;20209;-76
2024/03/01 03:25:44;;;;;;;17.00;9.53;;;8.60;99.90;;;;;;7298305;19;20566;-76
2024/03/01 03:28:13;;;;;;;18.33;9.80;;;8.60;99.90;;;;;;7303698;19;20201;-76
2024/03/01 03:30:40;;;;;;;17.00;9.53;;;8.70;99.90;;;;;;7283184;19;20645;-77
2024/03/01 03:33:06;;;;;;;18.40;9.70;;;8.70;99.90;;;;;;7286896;19;20194;-76
2024/03/01 03:35:33;;;;;;;14.90;9.27;;;8.70;99.90;;;;;;7286522;19;20203;-76
2024/03/01 03:37:59;;;;;;;16.10;9.10;;;8.60;99.90;;;;;;7282587;19;20204;-76
2024/03/01 03:40:26;;;;;;;15.67;9.30;;;8.50;99.90;;;;;;7281538;19;20196;-76
2024/03/01 03:42:52;;;;;;;14.97;9.13;;;8.50;99.90;;;;;;7280610;19;21077;-76
2024/03/01 03:45:18;;;;;;;16.10;9.60;;;8.40;99.90;;;;;;7281385;19;20187;-76
2024/03/01 03:47:43;;;;;;;15.00;9.43;;;8.30;99.90;;;;;;7303551;19;20304;-77
2024/03/01 03:50:09;;;;;;;16.83;8.47;;;8.40;99.90;;;;;;7283952;19;20649;-76
2024/03/01 03:52:35;;;;;;;18.63;9.53;;;8.40;99.90;;;;;;7280766;19;20191;-77
2024/03/01 03:55:05;;;;;;;16.10;8.17;;;8.40;99.90;;;;;;7282660;19;21092;-77
2024/03/01 03:57:34;;;;;;;16.60;8.70;;;8.40;99.90;;;;;;7285339;19;20189;-76
2024/03/01 04:00:04;;;;;;;16.20;7.53;;;8.40;99.90;;;;;;7303103;19;20211;-77
2024/03/01 04:02:38;;;;;;;17.13;7.77;;;8.50;99.90;;;;;;7307832;19;20717;-77
2024/03/01 04:05:05;;;;;;;15.37;8.07;;;8.50;99.90;;;;;;7284181;19;20694;-76
2024/03/01 04:07:32;;;;;;;18.37;7.70;;;8.50;99.90;;;;;;7289515;19;20289;-77
2024/03/01 04:10:00;;;;;;;16.53;8.00;;;8.60;99.90;;;;;;7292836;19;20549;-76
2024/03/01 04:12:27;;;;;;;16.13;7.90;;;8.40;99.90;;;;;;7282325;19;20221;-77
2024/03/01 04:14:52;;;;;;;18.87;8.20;;;8.40;99.90;;;;;;7280449;19;20734;-77
2024/03/01 04:17:19;;;;;;;19.77;8.67;;;8.30;99.90;;;;;;7282606;19;20197;-77
2024/03/01 04:19:44;;;;;;;19.53;8.27;;;8.20;99.90;;;;;;7295015;19;20185;-76
2024/03/01 04:22:13;;;;;;;20.70;9.40;;;8.20;99.90;;;;;;7294322;19;20196;-76
2024/03/01 04:24:39;;;;;;;17.87;8.40;;;8.30;99.90;;;;;;7281307;19;20189;-77
2024/03/01 04:27:04;;;;;;;18.93;8.70;;;8.30;99.90;;;;;;7279422;19;20194;-77
2024/03/01 04:29:30;;;;;;;18.93;8.63;;;8.40;99.90;;;;;;7280657;19;20221;-77
2024/03/01 04:31:56;;;;;;;17.97;8.73;;;8.40;99.90;;;;;;7278387;19;20558;-77
2024/03/01 04:34:22;;;;;;;17.90;7.80;;;8.50;99.90;;;;;;7279364;19;20201;-77
2024/03/01 04:36:48;;;;;;;17.63;7.93;;;8.60;99.90;;;;;;7279371;19;20190;-77
2024/03/01 04:39:14;;;;;;;17.47;7.97;;;8.60;99.90;;;;;;7299480;19;20219;-76
2024/03/01 04:41:41;;;;;;;18.07;7.80;;;8.40;99.90;;;;;;7297571;19;20208;-76
2024/03/01 04:44:06;;;;;;;15.57;8.07;;;8.20;99.90;;;;;;7278076;19;20196;-77
2024/03/01 04:46:33;;;;;;;16.70;8.50;;;8.10;99.90;;;;;;7279436;19;20188;-75
2024/03/01 04:48:59;;;;;;;16.17;7.93;;;8.10;99.90;;;;;;7279604;19;20198;-76
2024/03/01 04:51:24;;;;;;;14.60;8.27;;;7.90;99.90;;;;;;7279853;19;20214;-76
2024/03/01 04:53:51;;;;;;;16.50;8.63;;;7.80;99.90;;;;;;7282927;19;20280;-76
2024/03/01 04:56:19;;;;;;;19.10;8.70;;;7.70;99.90;;;;;;7287860;19;20191;-76
2024/03/01 04:58:45;;;;;;;17.53;8.20;;;7.70;99.90;;;;;;7292716;19;20994;-76
2024/03/01 05:01:11;;;;;;;15.47;8.30;;;7.70;99.90;;;;;;7306131;19;20208;-77
2024/03/01 05:03:37;;;;;;;15.77;9.10;;;7.60;99.90;;;;;;7284014;19;20189;-77
2024/03/01 05:06:03;;;;;;;15.73;8.50;;;7.70;99.90;;;;;;7288695;19;20213;-76
2024/03/01 05:08:32;;;;;;;20.20;9.63;;;7.70;99.90;;;;;;7282116;19;20665;-77
2024/03/01 05:10:59;;;;;;;17.77;8.80;;;7.80;99.90;;;;;;7281985;19;20204;-76
2024/03/01 05:13:26;;;;;;;17.53;9.53;;;7.80;99.90;;;;;;7285255;19;20630;-76
2024/03/01 05:15:52;;;;;;;20.30;9.03;;;7.80;99.90;;;;;;7284172;19;20241;-76
2024/03/01 05:18:18;;;;;;;17.30;9.00;;;7.70;99.90;;;;;;7282958;19;20648;-77
2024/03/01 05:20:44;;;;;;;19.13;8.93;;;7.70;99.90;;;;;;7303549;19;20685;-75
2024/03/01 05:23:13;;;;;;;17.80;8.83;;;7.60;99.90;;;;;;7298756;19;20191;-77
2024/03/01 05:25:39;;;;;;;16.47;8.77;;;7.70;99.90;;;;;;7288055;19;20185;-76
2024/03/01 05:28:05;;;;;;;16.13;8.30;;;7.70;99.90;;;;;;7289396;19;20201;-76
2024/03/01 05:30:35;;;;;;;16.90;8.70;;;7.60;99.90;;;;;;7286926;19;20209;-76
2024/03/01 05:33:02;;;;;;;15.97;7.87;;;7.60;99.90;;;;;;7284415;19;20554;-76
2024/03/01 05:35:28;;;;;;;16.33;7.57;;;7.60;99.90;;;;;;7283721;19;20203;-76
2024/03/01 05:37:57;;;;;;;17.80;8.17;;;7.60;99.90;;;;;;7285762;19;20188;-76
2024/03/01 05:40:24;;;;;;;18.23;8.20;;;7.60;99.90;;;;;;7284417;19;20196;-77
2024/03/01 05:42:50;;;;;;;17.17;7.93;;;7.50;99.90;;;;;;7288087;19;20203;-77
2024/03/01 05:45:16;;;;;;;20.67;8.20;;;7.40;99.90;;;;;;7283313;19;20192;-76
2024/03/01 05:47:44;;;;;;;19.53;7.87;;;7.30;99.90;;;;;;7304630;19;20196;-77
2024/03/01 05:50:11;;;;;;;22.43;8.00;;;7.30;99.90;;;;;;7286408;19;20210;-77
2024/03/01 05:52:38;;;;;;;20.93;7.47;;;7.30;99.90;;;;;;7282523;19;20214;-78
2024/03/01 05:55:04;;;;;;;25.23;7.27;;;7.20;99.90;;;;;;7283235;19;20201;-78
2024/03/01 05:57:31;;;;;;;18.57;6.93;;;7.10;99.90;;;;;;7283941;19;20195;-78
2024/03/01 05:59:57;;;;;;;21.93;6.80;;;7.20;99.90;;;;;;7280594;19;20187;-77
2024/03/01 06:02:23;;;;;;;20.97;7.37;;;7.10;99.90;;;;;;7283116;19;20189;-77
2024/03/01 06:04:49;;;;;;;19.53;6.47;;;7.00;99.90;;;;;;7284607;19;20653;-78
2024/03/01 06:07:16;;;;;;;22.07;7.80;;;7.00;99.90;;;;;;7302171;19;20221;-75
2024/03/01 06:09:42;;;;;;;22.37;7.70;;;7.00;99.90;;;;;;7306123;19;20184;-77
2024/03/01 06:12:08;;;;;;;21.53;7.50;;;7.00;99.90;;;;;;7281488;19;20185;-76
2024/03/01 06:14:33;;;;;;;22.53;7.53;;;7.00;99.90;;;;;;7282599;19;20188;-77
2024/03/01 06:16:59;;;;;;;23.10;7.17;;;7.00;99.90;;;;;;7277279;19;20801;-77
2024/03/01 06:19:25;;;;;;;15.47;6.20;;;7.10;99.90;;;;;;7282855;19;20196;-76
2024/03/01 06:21:55;;;;;;;15.70;6.10;;;7.00;99.90;;;;;;7281070;19;20621;-76
2024/03/01 06:24:21;;;;;;;15.17;6.27;;;7.10;99.90;;;;;;7281550;19;20210;-77
2024/03/01 06:26:49;;;;;;;15.67;5.73;;;7.00;99.90;;;;;;7278985;19;20216;-76
2024/03/01 06:29:15;;;;;;;12.17;5.13;;;7.10;99.90;;;;;;7294601;19;20188;-76
2024/03/01 06:31:42;;;;;;;13.67;4.80;;;7.10;99.90;;;;;;7302909;19;20192;-76
2024/03/01 06:34:08;;;;;;;11.53;5.07;;;7.10;99.90;;;;;;7280759;19;20215;-76
2024/03/01 06:36:34;;;;;;;17.10;5.00;;;7.10;99.90;;;;;;7282012;19;20185;-76
2024/03/01 06:39:00;;;;;;;14.80;5.30;;;7.20;99.90;;;;;;7281600;19;20196;-76
2024/03/01 06:41:25;;;;;;;14.27;5.47;;;7.20;99.90;;;;;;7281012;19;20196;-76
2024/03/01 06:43:52;;;;;;;17.33;6.67;;;7.30;99.90;;;;;;7277655;19;20191;-78
2024/03/01 06:46:18;;;;;;;13.17;5.00;;;7.40;99.90;;;;;;7303909;19;20236;-79
2024/03/01 06:48:44;;;;;;;15.63;5.30;;;7.30;99.90;;;;;;7299117;19;20284;-79
2024/03/01 06:51:10;;;;;;;11.87;5.10;;;7.30;99.90;;;;;;7280481;19;20188;-79
2024/03/01 06:53:36;;;;;;;13.63;5.23;;;7.20;99.90;;;;;;7282284;19;20680;-79
2024/03/01 06:56:02;;;;;;;13.40;5.83;;;7.30;99.90;;;;;;7279029;19;20207;-78
2024/03/01 06:58:29;;;;;;;14.03;5.07;;;7.30;99.90;;;;;;7279627;19;20188;-80
2024/03/01 07:00:54;;;;;;;14.70;5.33;;;7.20;99.90;;;;;;7277289;19;20193;-79
2024/03/01 07:03:20;;;;;;;15.40;4.80;;;7.10;99.90;;;;;;7279898;19;20220;-79
2024/03/01 07:05:47;;;;;;;14.47;5.73;;;7.20;99.90;;;;;;7282792;19;20185;-79
2024/03/01 07:08:12;;;;;;;12.37;5.13;;;7.30;99.90;;;;;;7305023;19;20177;-80
2024/03/01 07:10:38;;;;;;;12.93;4.73;;;7.20;99.90;;;;;;7279109;19;20215;-79
2024/03/01 07:13:04;;;;;;;14.23;4.80;;;7.30;99.90;;;;;;7266059;19;20190;-79
2024/03/01 07:15:30;;;;;;;12.37;4.23;;;7.30;99.90;;;;;;7278341;19;20188;-79
2024/03/01 07:17:57;;;;;;;10.80;4.13;;;7.30;99.90;;;;;;7277694;19;20185;-79
2024/03/01 07:20:23;;;;;;;12.90;3.90;;;7.40;99.90;;;;;;7286222;19;20195;-79
2024/03/01 07:22:49;;;;;;;10.10;3.87;;;7.40;99.90;;;;;;7278895;19;20601;-79
2024/03/01 07:25:16;;;;;;;11.93;3.60;;;7.50;99.90;;;;;;7292157;19;20237;-78
2024/03/01 07:27:41;;;;;;;13.67;3.80;;;7.50;99.90;;;;;;7303950;19;20213;-79
2024/03/01 07:30:11;;;;;;;13.53;3.17;;;7.50;99.90;;;;;;7281939;19;20188;-79
2024/03/01 07:32:37;;;;;;;14.63;3.43;;;7.60;99.90;;;;;;7284638;19;20201;-79
2024/03/01 07:35:04;;;;;;;12.90;3.20;;;7.60;99.90;;;;;;7278616;19;20189;-78
2024/03/01 07:37:30;;;;;;;6.33;2.63;;;7.80;99.90;;;;;;7280252;19;20209;-79
2024/03/01 07:39:57;;;;;;;11.60;2.60;;;8.00;99.90;;;;;;7280840;19;20227;-80
2024/03/01 07:42:23;;;;;;;12.97;3.00;;;8.10;99.90;;;;;;7280869;19;20185;-78
2024/03/01 07:44:49;;;;;;;10.07;2.90;;;8.10;99.90;;;;;;7279661;19;20213;-79
2024/03/01 07:47:14;;;;;;;12.97;2.80;;;8.20;99.90;;;;;;7299866;19;20307;-79
2024/03/01 07:49:41;;;;;;;8.47;2.47;;;8.40;99.90;;;;;;7288966;19;20198;-79
2024/03/01 07:52:06;;;;;;;8.70;2.30;;;8.10;99.90;;;;;;7280329;19;20211;-78
2024/03/01 07:54:32;;;;;;;9.37;2.83;;;8.00;99.90;;;;;;7279895;19;20542;-79
2024/03/01 07:56:57;;;;;;;7.20;2.30;;;8.00;99.90;;;;;;7277154;19;20252;-78
2024/03/01 07:59:23;;;;;;;8.67;2.07;;;8.20;99.90;;;;;;7279113;19;20197;-79
2024/03/01 08:01:50;;;;;;;14.43;2.30;;;8.20;99.90;;;;;;7282128;19;20235;-78
2024/03/01 08:04:16;;;;;;;9.43;2.00;;;8.30;99.90;;;;;;7287149;19;20192;-78
2024/03/01 08:06:42;;;;;;;12.97;2.20;;;8.30;99.90;;;;;;7301615;19;21508;-80
2024/03/01 08:09:18;;;;;;;9.37;2.33;;;8.40;99.90;;;;;;7278668;19;20177;-79
2024/03/01 08:11:45;;;;;;;8.27;1.97;;;8.50;99.90;;;;;;7277399;19;20192;-80
2024/03/01 08:14:42;;;;;;;8.40;1.80;;;8.40;99.90;;;;;;7280903;19;20185;-79
2024/03/01 08:17:08;;;;;;;8.27;2.00;;;8.50;99.90;;;;;;7176980;19;2004745;-78
2024/03/01 08:19:41;;;;;;;7.70;2.00;;;8.50;99.90;;;;;;7277235;19;20203;-79
2024/03/01 08:22:14;;;;;;;8.93;2.00;;;8.50;99.90;;;;;;7285273;19;20200;-79
2024/03/01 08:24:42;;;;;;;8.30;1.90;;;8.60;99.90;;;;;;7279409;19;20304;-79
2024/03/01 08:27:11;;;;;;;6.37;2.00;;;8.80;99.90;;;;;;7278330;19;20178;-79
2024/03/01 08:29:36;;;;;;;10.80;2.13;;;8.80;99.90;;;;;;7278296;19;20200;-79
2024/03/01 08:32:16;;;;;;;7.67;1.93;;;9.00;99.90;;;;;;7278196;19;20550;-81
2024/03/01 08:34:52;;;;;;;10.83;1.80;;;9.30;99.90;;;;;;7279345;19;20265;-79
2024/03/01 08:37:23;;;;;;;6.87;1.90;;;9.10;99.90;;;;;;7256631;19;20212;-79
2024/03/01 08:39:50;;;;;;;10.33;1.90;;;9.10;99.90;;;;;;7278852;19;21469;-80
2024/03/01 08:42:15;;;;;;;8.00;1.80;;;8.90;99.90;;;;;;7289320;19;20233;-78
2024/03/01 08:44:44;;;;;;;9.30;2.00;;;8.90;99.90;;;;;;7303502;19;20188;-79
2024/03/01 08:47:30;;;;;;;9.23;2.03;;;9.00;99.90;;;;;;7289414;19;20189;-79
2024/03/01 08:50:24;;;;;;;12.23;2.30;;;9.10;99.90;;;;;;7187464;19;2004422;-79
2024/03/01 08:52:52;;;;;;;10.60;3.17;;;9.20;99.90;;;;;;7184581;19;2004605;-79
2024/03/01 08:55:20;;;;;;;8.33;2.40;;;9.20;99.90;;;;;;7277497;19;20215;-79
2024/03/01 08:57:47;;;;;;;9.23;1.77;;;9.30;99.90;;;;;;7278886;19;20716;-79
2024/03/01 09:00:35;;;;;;;12.40;2.10;;;9.30;99.90;;;;;;7300663;19;20905;-79
2024/03/01 09:03:01;;;;;;;8.73;2.00;;;9.40;99.90;;;;;;7176703;19;2004738;-79
2024/03/01 09:05:29;;;;;;;10.33;2.30;;;9.30;99.90;;;;;;7277085;19;20253;-79
2024/03/01 09:07:57;;;;;;;6.90;1.70;;;9.30;99.90;;;;;;7275939;19;20205;-79
2024/03/01 09:10:33;;;;;;;10.50;2.33;;;9.00;99.90;;;;;;7276732;19;20192;-79
2024/03/01 09:13:08;;;;;;;8.70;2.17;;;9.00;99.90;;;;;;7283012;19;20183;-80
2024/03/01 09:15:39;;;;;;;5.73;1.60;;;8.80;99.90;;;;;;7274200;19;20192;-81
2024/03/01 09:18:49;;;;;;;7.30;1.70;;;8.90;99.90;;;;;;7276799;19;20198;-79
2024/03/01 09:21:37;;;;;;;6.43;1.80;;;9.10;99.90;;;;;;7174485;19;2004689;-79
2024/03/01 09:24:04;;;;;;;5.87;1.40;;;9.00;99.90;;;;;;7278110;19;20216;-79
2024/03/01 09:26:30;;;;;;;6.47;1.40;;;8.90;99.90;;;;;;7280648;19;20189;-79
2024/03/01 09:29:03;;;;;;;9.03;1.30;;;8.90;99.90;;;;;;7276191;19;20739;-79
2024/03/01 09:31:32;;;;;;;6.40;1.27;;;9.00;99.90;;;;;;7276864;19;20200;-79
2024/03/01 09:34:01;;;;;;;7.30;1.60;;;8.90;99.90;;;;;;7276765;19;20206;-79
2024/03/01 09:36:26;;;;;;;6.67;1.67;;;9.10;99.90;;;;;;7276682;19;20189;-79
2024/03/01 09:38:54;;;;;;;6.87;1.47;;;9.20;99.90;;;;;;7276856;19;20204;-80
2024/03/01 09:41:28;;;;;;;8.23;1.40;;;9.00;99.90;;;;;;7282672;19;20185;-79
2024/03/01 09:44:10;;;;;;;5.43;1.50;;;9.00;99.90;;;;;;7281525;19;20686;-79
2024/03/01 09:47:07;;;;;;;7.40;1.60;;;8.90;99.90;;;;;;7282194;19;20199;-79
2024/03/01 09:49:53;;;;;;;10.57;1.60;;;9.10;99.90;;;;;;7178304;19;2004598;-78
2024/03/01 09:52:27;;;;;;;6.57;1.40;;;9.20;99.90;;;;;;7262889;19;20192;-79
2024/03/01 09:55:25;;;;;;;3.77;1.10;;;9.20;99.90;;;;;;7285534;19;20193;-79
2024/03/01 09:58:27;;;;;;;9.47;1.33;;;9.20;99.90;;;;;;7182785;19;2004745;-78
2024/03/01 10:01:21;;;;;;;5.60;1.07;;;9.20;99.90;;;;;;7181621;19;2004420;-80
2024/03/01 10:04:10;;;;;;;6.07;0.90;;;9.30;99.90;;;;;;7262568;19;20186;-78
2024/03/01 10:06:59;;;;;;;5.67;1.17;;;9.70;99.90;;;;;;7291233;19;20219;-78
2024/03/01 10:09:57;;;;;;;10.73;1.43;;;10.00;99.90;;;;;;7200470;19;2006279;-79
2024/03/01 10:12:34;;;;;;;7.37;1.27;;;10.00;99.90;;;;;;7200464;19;2004892;-79
2024/03/01 10:15:31;;;;;;;5.63;0.90;;;10.50;99.90;;;;;;7301106;19;20184;-79
2024/03/01 10:18:18;;;;;;;4.97;0.87;;;11.10;99.90;;;;;;7188309;19;2004638;-79
2024/03/01 10:21:02;;;;;;;3.47;0.87;;;11.70;99.90;;;;;;7291648;19;20229;-79
2024/03/01 10:23:41;;;;;;;5.80;1.00;;;12.40;99.90;;;;;;7182582;19;2004620;-78
2024/03/01 10:26:15;;;;;;;5.17;0.97;;;12.60;99.90;;;;;;7286502;19;20682;-79
2024/03/01 10:29:08;;;;;;;4.23;1.10;;;12.70;99.90;;;;;;7285862;19;20206;-78
2024/03/01 10:32:11;;;;;;;6.77;1.00;;;12.70;99.90;;;;;;7182526;19;2005025;-80
2024/03/01 10:35:02;;;;;;;8.20;1.00;;;12.90;99.90;;;;;;7182784;19;2004790;-79
2024/03/01 10:38:05;;;;;;;5.50;1.13;;;12.70;99.90;;;;;;7180863;19;2005032;-78
2024/03/01 10:40:40;;;;;;;4.67;0.97;;;12.20;99.90;;;;;;7181176;19;2004551;-79
2024/03/01 10:43:13;;;;;;;4.27;0.93;;;11.90;99.90;;;;;;7290963;19;20177;-79
2024/03/01 10:45:56;;;;;;;7.17;0.90;;;11.50;99.90;;;;;;7282461;19;20679;-79
2024/03/01 10:48:23;;;;;;;6.27;1.17;;;11.20;99.90;;;;;;7180226;19;2004751;-78
2024/03/01 10:50:59;;;;;;;6.47;1.27;;;10.70;99.90;;;;;;7296257;19;20199;-78
2024/03/01 10:53:54;;;;;;;4.67;0.90;;;10.70;99.90;;;;;;7299243;19;20194;-79
2024/03/01 10:56:29;;;;;;;4.37;1.10;;;10.50;99.90;;;;;;7195793;19;2006226;-78
2024/03/01 10:59:43;;;;;;;3.80;0.73;;;10.50;99.90;;;;;;7283563;19;20194;-78
2024/03/01 11:02:23;;;;;;;3.67;0.90;;;10.40;99.90;;;;;;7198225;19;2004569;-79
2024/03/01 11:05:02;;;;;;;4.10;1.00;;;10.30;99.90;;;;;;7273425;19;20190;-79
2024/03/01 11:07:50;;;;;;;7.23;1.00;;;10.30;99.90;;;;;;7297860;19;20222;-80
2024/03/01 11:10:25;;;;;;;5.80;1.10;;;10.50;99.90;;;;;;7299230;19;20191;-78
2024/03/01 11:13:19;;;;;;;6.00;0.90;;;11.10;99.90;;;;;;7297052;19;20194;-78
2024/03/01 11:15:50;;;;;;;6.87;0.80;;;11.70;99.90;;;;;;7281451;19;20191;-79
2024/03/01 11:18:27;;;;;;;6.97;1.03;;;11.90;99.90;;;;;;7287674;19;20220;-78
2024/03/01 11:21:02;;;;;;;5.20;0.90;;;11.70;99.90;;;;;;7297915;19;20662;-78
2024/03/01 11:23:38;;;;;;;2.63;0.70;;;11.50;99.90;;;;;;7292762;19;20198;-79
2024/03/01 11:26:42;;;;;;;6.27;0.97;;;11.20;99.90;;;;;;7297190;19;20252;-78
2024/03/01 11:29:15;;;;;;;7.13;1.13;;;11.20;99.90;;;;;;7197652;19;2004749;-79
2024/03/01 11:31:43;;;;;;;5.23;0.93;;;11.20;99.90;;;;;;7297850;19;20761;-78
2024/03/01 11:34:44;;;;;;;6.30;0.73;;;11.00;99.90;;;;;;7292424;19;20192;-79
2024/03/01 11:37:54;;;;;;;6.63;1.20;;;10.90;99.90;;;;;;7197337;19;2004315;-80
2024/03/01 11:40:50;;;;;;;6.63;0.90;;;10.70;99.90;;;;;;7090248;19;2004717;-79
2024/03/01 11:43:52;;;;;;;6.33;1.27;;;10.70;99.90;;;;;;7287105;19;20186;-79
2024/03/01 11:47:06;;;;;;;7.10;0.97;;;10.70;99.90;;;;;;7193935;19;2004506;-79
2024/03/01 11:49:52;;;;;;;3.50;0.70;;;10.60;99.90;;;;;;7194057;19;2004643;-79
2024/03/01 11:52:54;;;;;;;4.53;1.00;;;10.60;99.90;;;;;;7193660;19;2005965;-79
2024/03/01 11:55:41;;;;;;;4.87;0.90;;;10.40;99.90;;;;;;7192174;19;2004552;-79
2024/03/01 11:58:38;;;;;;;6.60;0.90;;;10.30;99.90;;;;;;7299558;19;20234;-80
2024/03/01 12:01:31;;;;;;;4.20;1.00;;;10.30;99.90;;;;;;7195157;19;2006151;-79
2024/03/01 12:04:36;;;;;;;8.43;1.20;;;10.50;99.90;;;;;;7183522;19;2006158;-79
2024/03/01 12:07:51;;;;;;;10.20;1.23;;;10.60;99.90;;;;;;7197814;19;2004603;-81
2024/03/01 12:10:53;;;;;;;6.63;1.17;;;10.80;99.90;;;;;;7177579;19;2004868;-80
2024/03/01 12:13:21;;;;;;;5.83;0.90;;;10.80;99.90;;;;;;7273678;19;20274;-80
2024/03/01 12:16:03;;;;;;;6.33;1.07;;;10.80;99.90;;;;;;7298472;19;20666;-80
2024/03/01 12:18:47;;;;;;;10.03;1.23;;;10.40;99.90;;;;;;7304023;19;20195;-79
2024/03/01 12:21:18;;;;;;;7.40;1.17;;;10.20;99.90;;;;;;7300407;19;20210;-79
2024/03/01 12:24:04;;;;;;;7.43;1.63;;;10.10;99.90;;;;;;7295808;19;20196;-80
2024/03/01 12:26:57;;;;;;;8.13;1.30;;;10.00;99.90;;;;;;7191077;19;2004474;-80
2024/03/01 12:29:42;;;;;;;8.00;1.20;;;10.00;99.90;;;;;;7188246;19;2004554;-79
2024/03/01 12:32:17;;;;;;;7.33;2.17;;;10.10;99.90;;;;;;7283968;19;20214;-80
2024/03/01 12:34:51;;;;;;;5.57;1.20;;;9.90;99.90;;;;;;7271559;19;20195;-80
2024/03/01 12:37:29;;;;;;;7.77;1.27;;;9.90;99.90;;;;;;7264013;19;20190;-79
2024/03/01 12:40:16;;;;;;;6.63;1.20;;;10.10;99.90;;;;;;7275564;19;20198;-80
2024/03/01 12:43:37;;;;;;;11.10;1.60;;;10.00;99.90;;;;;;7278839;19;20186;-79
2024/03/01 12:46:40;;;;;;;7.27;1.10;;;9.90;99.90;;;;;;7072694;19;2004982;-79
2024/03/01 12:49:24;;;;;;;7.07;1.20;;;9.80;99.90;;;;;;7181518;19;2005194;-80
2024/03/01 12:52:10;;;;;;;8.90;1.10;;;9.80;99.90;;;;;;7177181;19;2006062;-79
2024/03/01 12:55:11;;;;;;;5.77;1.10;;;9.90;99.90;;;;;;7278819;19;20187;-79
2024/03/01 12:57:53;;;;;;;8.70;1.30;;;10.00;99.90;;;;;;7180806;19;2004384;-80
2024/03/01 13:00:24;;;;;;;11.30;1.60;;;10.30;99.90;;;;;;7281561;19;20189;-79
2024/03/01 13:03:18;;;;;;;6.57;1.23;;;10.30;99.90;;;;;;7300033;19;20218;-80
2024/03/01 13:05:49;;;;;;;8.57;1.20;;;10.20;99.90;;;;;;7290783;19;20186;-79
2024/03/01 13:08:30;;;;;;;8.47;1.40;;;10.00;99.90;;;;;;7312200;19;20706;-79
2024/03/01 13:11:01;;;;;;;10.33;1.50;;;10.10;99.90;;;;;;7183593;19;2005087;-79
2024/03/01 13:13:29;;;;;;;4.73;0.90;;;10.10;99.90;;;;;;7288456;19;20190;-79